createdAt,value
2022-11-18T00:01:07.933Z,97.57
2022-11-18T00:03:10.932Z,98.17
2022-11-18T00:05:14.098Z,98.49
2022-11-18T00:07:17.232Z,98.04
2022-11-18T00:09:20.552Z,99.60
2022-11-18T00:11:42.420Z,97.35
2022-11-18T00:14:02.994Z,98.63
2022-11-18T00:16:09.160Z,98.64
2022-11-18T00:18:12.111Z,98.35
2022-11-18T00:20:15.764Z,98.49
2022-11-18T00:22:18.850Z,98.89
2022-11-18T00:24:22.533Z,97.32
2022-11-18T00:26:25.595Z,97.08
2022-11-18T00:28:28.610Z,98.75
2022-11-18T00:30:31.595Z,96.55
2022-11-18T00:32:35.982Z,98.24
2022-11-18T00:34:39.136Z,98.02
2022-11-18T00:36:42.937Z,96.88
2022-11-18T00:38:46.280Z,98.51
2022-11-18T00:40:49.224Z,97.72
2022-11-18T00:42:51.224Z,97.01
2022-11-18T00:44:54.346Z,98.33
2022-11-18T00:46:57.315Z,98.48
2022-11-18T00:49:01.839Z,98.03
2022-11-18T00:51:11.720Z,98.23
2022-11-18T00:53:14.727Z,97.61
2022-11-18T00:55:17.775Z,97.91
2022-11-18T00:57:20.801Z,97.85
2022-11-18T00:59:23.833Z,97.63
2022-11-18T01:01:27.295Z,98.30
2022-11-18T01:03:30.663Z,98.40
2022-11-18T01:05:36.377Z,98.27
2022-11-18T01:07:39.517Z,98.15
2022-11-18T01:09:42.551Z,97.38
2022-11-18T01:12:03.019Z,98.58
2022-11-18T01:14:06.031Z,96.72
2022-11-18T01:16:09.020Z,96.68
2022-11-18T01:18:12.231Z,97.01
2022-11-18T01:20:15.917Z,95.93
2022-11-18T01:22:20.293Z,97.58
2022-11-18T01:24:23.690Z,98.27
2022-11-18T01:26:26.749Z,96.37
2022-11-18T01:28:29.837Z,96.16
2022-11-18T01:30:35.075Z,97.16
2022-11-18T01:32:38.101Z,98.36
2022-11-18T01:34:41.073Z,97.46
2022-11-18T01:36:44.134Z,96.89
2022-11-18T01:38:48.727Z,98.14
2022-11-18T01:40:51.827Z,96.60
2022-11-18T01:42:54.844Z,97.00
2022-11-18T01:45:09.736Z,98.26
2022-11-18T01:47:13.341Z,98.43
2022-11-18T01:49:16.875Z,98.26
2022-11-18T01:51:23.432Z,97.42
2022-11-18T01:53:28.496Z,97.60
2022-11-18T01:55:35.235Z,98.00
2022-11-18T01:57:38.201Z,99.19
2022-11-18T01:59:42.665Z,99.48
2022-11-18T02:01:45.836Z,98.59
2022-11-18T02:03:49.854Z,98.26
2022-11-18T02:05:53.717Z,98.87
2022-11-18T02:07:57.746Z,98.80
2022-11-18T02:10:03.807Z,99.07
2022-11-18T02:12:09.417Z,99.22
2022-11-18T02:14:12.575Z,98.96
2022-11-18T02:16:17.115Z,98.49
2022-11-18T02:18:28.528Z,98.24
2022-11-18T02:20:33.362Z,97.58
2022-11-18T02:22:48.593Z,98.40
2022-11-18T02:24:57.491Z,97.74
2022-11-18T02:27:36.142Z,98.95
2022-11-18T02:29:44.148Z,98.84
2022-11-18T02:31:52.650Z,98.81
2022-11-18T02:33:57.786Z,98.90
2022-11-18T02:36:06.737Z,98.61
2022-11-18T02:38:11.602Z,98.61
2022-11-18T02:40:17.559Z,98.46
2022-11-18T02:42:20.964Z,97.86
2022-11-18T02:44:26.294Z,99.47
2022-11-18T02:46:34.081Z,98.87
2022-11-18T02:48:41.389Z,99.90
2022-11-18T02:50:45.954Z,99.43
2022-11-18T02:52:52.908Z,99.19
2022-11-18T02:54:56.738Z,98.67
2022-11-18T02:57:00.258Z,99.43
2022-11-18T02:59:04.087Z,99.77
2022-11-18T03:01:07.301Z,99.04
2022-11-18T03:03:28.160Z,98.69
2022-11-18T03:05:37.541Z,98.90
2022-11-18T03:07:42.570Z,97.76
2022-11-18T03:09:48.338Z,99.06
2022-11-18T03:11:56.925Z,98.88
2022-11-18T03:14:09.483Z,99.03
2022-11-18T03:16:15.781Z,98.74
2022-11-18T03:18:26.509Z,99.97
2022-11-18T03:20:32.093Z,99.94
2022-11-18T03:22:40.257Z,99.66
2022-11-18T03:24:46.938Z,99.93
2022-11-18T03:26:52.457Z,100.00
2022-11-18T03:28:58.054Z,100.00
2022-11-18T03:31:04.442Z,100.00
2022-11-18T03:33:11.662Z,99.91
2022-11-18T03:35:19.272Z,100.00
2022-11-18T03:37:23.207Z,100.00
2022-11-18T03:39:27.245Z,100.00
2022-11-18T03:41:34.151Z,100.00
2022-11-18T03:43:39.617Z,100.00
2022-11-18T03:45:45.587Z,100.00
2022-11-18T03:47:51.514Z,100.00
2022-11-18T03:49:57.714Z,100.00
2022-11-18T03:52:07.703Z,100.00
2022-11-18T03:54:13.515Z,100.00
2022-11-18T03:56:18.058Z,100.00
2022-11-18T03:58:24.642Z,100.00
2022-11-18T04:00:28.630Z,100.00
2022-11-18T04:02:31.969Z,100.00
2022-11-18T04:04:35.115Z,100.00
2022-11-18T04:06:39.910Z,100.00
2022-11-18T04:08:45.003Z,100.00
2022-11-18T04:10:52.071Z,100.00
2022-11-18T04:13:05.915Z,100.00
2022-11-18T04:15:10.454Z,100.00
2022-11-18T04:17:14.726Z,100.00
2022-11-18T04:19:17.799Z,100.00
2022-11-18T04:21:20.765Z,100.00
2022-11-18T04:23:23.904Z,100.00
2022-11-18T04:25:28.381Z,100.00
2022-11-18T04:27:31.420Z,100.00
2022-11-18T04:29:35.221Z,100.00
2022-11-18T04:31:38.258Z,100.00
2022-11-18T04:33:41.198Z,100.00
2022-11-18T04:35:44.510Z,100.00
2022-11-18T04:37:47.450Z,100.00
2022-11-18T04:39:50.863Z,100.00
2022-11-18T04:41:56.956Z,100.00
2022-11-18T04:43:59.992Z,100.00
2022-11-18T04:46:03.115Z,100.00
2022-11-18T04:48:06.845Z,100.00
2022-11-18T04:50:10.582Z,100.00
2022-11-18T04:52:13.609Z,100.00
2022-11-18T04:54:17.335Z,99.94
2022-11-18T04:56:20.406Z,99.78
2022-11-18T04:58:24.950Z,100.00
2022-11-18T05:00:28.007Z,100.00
2022-11-18T05:02:30.971Z,99.79
2022-11-18T05:04:35.398Z,100.00
2022-11-18T05:06:38.408Z,100.00
2022-11-18T05:08:41.350Z,99.59
2022-11-18T05:10:44.439Z,99.78
2022-11-18T05:12:49.707Z,100.00
2022-11-18T05:14:54.128Z,99.76
2022-11-18T05:16:58.683Z,99.67
2022-11-18T05:19:03.233Z,99.67
2022-11-18T05:21:06.534Z,98.96
2022-11-18T05:23:09.719Z,99.49
2022-11-18T05:25:12.729Z,99.86
2022-11-18T05:27:16.324Z,98.64
2022-11-18T05:29:20.245Z,100.00
2022-11-18T05:31:24.788Z,100.00
2022-11-18T05:33:27.908Z,98.45
2022-11-18T05:35:31.337Z,99.31
2022-11-18T05:37:34.718Z,98.59
2022-11-18T05:39:37.831Z,98.51
2022-11-18T05:41:58.345Z,99.07
2022-11-18T05:44:01.799Z,98.83
2022-11-18T05:46:05.279Z,98.65
2022-11-18T05:48:09.728Z,99.87
2022-11-18T05:50:16.046Z,100.00
2022-11-18T05:52:20.528Z,98.66
2022-11-18T05:54:24.058Z,99.36
2022-11-18T05:56:30.051Z,99.35
2022-11-18T05:58:33.126Z,98.50
2022-11-18T06:00:36.293Z,98.26
2022-11-18T06:02:39.339Z,98.15
2022-11-18T06:04:46.461Z,99.51
2022-11-18T06:06:50.651Z,98.86
2022-11-18T06:08:56.910Z,99.71
2022-11-18T06:11:00.346Z,99.13
2022-11-18T06:13:06.643Z,99.92
2022-11-18T06:15:14.745Z,99.81
2022-11-18T06:17:19.581Z,98.64
2022-11-18T06:19:22.944Z,99.63
2022-11-18T06:21:27.450Z,99.73
2022-11-18T06:23:32.551Z,99.11
2022-11-18T06:25:38.681Z,99.94
2022-11-18T06:27:42.239Z,98.43
2022-11-18T06:29:45.334Z,98.88
2022-11-18T06:31:48.377Z,99.15
2022-11-18T06:33:51.419Z,97.87
2022-11-18T06:35:54.467Z,97.76
2022-11-18T06:37:58.899Z,98.36
2022-11-18T06:40:02.002Z,98.43
2022-11-18T06:42:05.245Z,98.68
2022-11-18T06:44:07.335Z,98.00
2022-11-18T06:46:29.902Z,98.11
2022-11-18T06:48:32.937Z,98.69
2022-11-18T06:50:35.919Z,97.65
2022-11-18T06:52:39.635Z,98.82
2022-11-18T06:54:44.228Z,98.71
2022-11-18T06:56:47.306Z,98.15
2022-11-18T06:58:54.340Z,99.07
2022-11-18T07:00:57.419Z,98.96
2022-11-18T07:03:00.489Z,98.34
2022-11-18T07:05:03.656Z,99.31
2022-11-18T07:07:06.884Z,98.45
2022-11-18T07:09:10.045Z,98.55
2022-11-18T07:11:16.681Z,98.52
2022-11-18T07:13:19.761Z,99.49
2022-11-18T07:15:22.815Z,99.77
2022-11-18T07:17:26.506Z,99.34
2022-11-18T07:19:34.448Z,98.76
2022-11-18T07:21:39.541Z,98.97
2022-11-18T07:23:43.072Z,99.56
2022-11-18T07:25:46.885Z,98.81
2022-11-18T07:27:51.278Z,99.64
2022-11-18T07:29:54.324Z,100.00
2022-11-18T07:31:57.407Z,99.76
2022-11-18T07:34:00.636Z,99.63
2022-11-18T07:36:05.344Z,99.16
2022-11-18T07:38:08.372Z,98.63
2022-11-18T07:40:11.854Z,99.06
2022-11-18T07:42:16.589Z,99.48
2022-11-18T07:44:21.526Z,99.02
2022-11-18T07:46:26.341Z,99.82
2022-11-18T07:48:30.025Z,99.95
2022-11-18T07:50:33.306Z,100.00
2022-11-18T07:52:36.559Z,99.81
2022-11-18T07:54:40.701Z,99.50
2022-11-18T07:56:43.990Z,100.00
2022-11-18T07:58:47.533Z,99.96
2022-11-18T08:00:51.972Z,99.57
2022-11-18T08:02:57.828Z,100.00
2022-11-18T08:05:03.782Z,99.67
2022-11-18T08:07:10.862Z,100.00
2022-11-18T08:09:14.203Z,100.00
2022-11-18T08:11:22.402Z,100.00
2022-11-18T08:13:29.485Z,100.00
2022-11-18T08:15:32.801Z,100.00
2022-11-18T08:17:37.597Z,100.00
2022-11-18T08:19:40.746Z,100.00
2022-11-18T08:21:45.297Z,100.00
2022-11-18T08:23:51.731Z,100.00
2022-11-18T08:26:03.127Z,100.00
2022-11-18T08:28:06.549Z,100.00
2022-11-18T08:30:11.135Z,100.00
2022-11-18T08:32:14.715Z,100.00
2022-11-18T08:34:19.192Z,100.00
2022-11-18T08:36:24.143Z,100.00
2022-11-18T08:38:27.398Z,100.00
2022-11-18T08:40:31.662Z,100.00
2022-11-18T08:42:37.788Z,99.33
2022-11-18T08:44:40.827Z,100.00
2022-11-18T08:46:45.566Z,100.00
2022-11-18T08:48:48.913Z,99.82
2022-11-18T08:50:54.936Z,100.00
2022-11-18T08:52:58.068Z,99.78
2022-11-18T08:55:02.946Z,100.00
2022-11-18T08:57:06.126Z,98.92
2022-11-18T08:59:09.336Z,100.00
2022-11-18T09:01:12.675Z,100.00
2022-11-18T09:03:15.878Z,98.73
2022-11-18T09:05:18.981Z,99.77
2022-11-18T09:07:23.510Z,98.72
2022-11-18T09:09:26.737Z,99.09
2022-11-18T09:11:29.797Z,98.92
2022-11-18T09:13:56.307Z,100.00
2022-11-18T09:15:59.147Z,100.00
2022-11-18T09:18:02.304Z,99.37
2022-11-18T09:20:06.150Z,99.55
2022-11-18T09:22:09.577Z,100.00
2022-11-18T09:24:14.013Z,100.00
2022-11-18T09:26:19.175Z,98.66
2022-11-18T09:28:22.194Z,98.97
2022-11-18T09:30:25.254Z,100.00
2022-11-18T09:32:28.329Z,99.46
2022-11-18T09:34:32.475Z,99.42
2022-11-18T09:36:35.451Z,100.00
2022-11-18T09:38:38.509Z,99.94
2022-11-18T09:40:49.761Z,99.24
2022-11-18T09:42:58.798Z,99.14
2022-11-18T09:45:13.842Z,98.87
2022-11-18T09:47:26.363Z,98.71
2022-11-18T09:49:32.160Z,98.85
2022-11-18T09:51:41.068Z,98.67
2022-11-18T09:53:45.767Z,99.22
2022-11-18T09:55:51.292Z,99.29
2022-11-18T09:57:56.951Z,99.51
2022-11-18T10:00:00.498Z,99.65
2022-11-18T10:02:09.350Z,100.00
2022-11-18T10:04:16.968Z,98.60
2022-11-18T10:06:25.242Z,99.69
2022-11-18T10:08:30.127Z,98.63
2022-11-18T10:10:46.650Z,99.37
2022-11-18T10:12:56.128Z,98.99
2022-11-18T10:15:09.207Z,99.53
2022-11-18T10:17:25.802Z,99.40
2022-11-18T10:19:33.750Z,98.78
2022-11-18T10:21:49.456Z,100.00
2022-11-18T10:23:54.870Z,99.96
2022-11-18T10:25:58.589Z,99.62
2022-11-18T10:28:18.072Z,99.90
2022-11-18T10:30:22.624Z,100.00
2022-11-18T10:32:25.733Z,98.80
2022-11-18T10:34:28.926Z,99.20
2022-11-18T10:36:34.187Z,100.00
2022-11-18T10:38:37.238Z,100.00
2022-11-18T10:40:45.374Z,100.00
2022-11-18T10:42:48.354Z,99.67
2022-11-18T10:44:52.856Z,100.00
2022-11-18T10:46:55.941Z,100.00
2022-11-18T10:49:17.370Z,99.32
2022-11-18T10:51:25.526Z,100.00
2022-11-18T10:53:32.248Z,100.00
2022-11-18T10:55:35.507Z,100.00
2022-11-18T10:57:43.396Z,100.00
2022-11-18T10:59:48.723Z,100.00
2022-11-18T11:02:05.375Z,100.00
2022-11-18T11:04:18.474Z,100.00
2022-11-18T11:06:33.918Z,100.00
2022-11-18T11:08:49.486Z,100.00
2022-11-18T11:10:55.772Z,100.00
2022-11-18T11:13:01.688Z,100.00
2022-11-18T11:15:07.681Z,100.00
2022-11-18T11:17:14.695Z,100.00
2022-11-18T11:19:21.226Z,100.00
2022-11-18T11:21:27.895Z,100.00
2022-11-18T11:23:33.770Z,100.00
2022-11-18T11:30:18.921Z,100.00
2022-11-18T11:32:27.944Z,100.00
2022-11-18T11:34:37.415Z,100.00
2022-11-18T11:36:46.499Z,100.00
2022-11-18T11:39:01.335Z,100.00
2022-11-18T11:50:03.230Z,100.00
2022-11-18T11:52:12.015Z,100.00
2022-11-18T11:54:45.657Z,100.00
2022-11-18T11:56:52.072Z,100.00
2022-11-18T11:59:22.137Z,100.00
2022-11-18T12:01:28.995Z,100.00
2022-11-18T12:03:51.437Z,100.00
2022-11-18T12:05:56.495Z,100.00
2022-11-18T12:08:01.700Z,100.00
2022-11-18T12:10:17.648Z,100.00
2022-11-18T12:12:35.988Z,100.00
2022-11-18T12:14:43.456Z,100.00
2022-11-18T12:16:48.507Z,100.00
2022-11-18T12:18:56.382Z,100.00
2022-11-18T12:21:00.819Z,100.00
2022-11-18T12:23:15.117Z,100.00
2022-11-18T12:25:44.734Z,100.00
2022-11-18T12:28:01.101Z,99.47
2022-11-18T12:30:05.365Z,98.63
2022-11-18T12:32:26.704Z,99.44
2022-11-18T12:34:36.218Z,98.61
2022-11-18T12:36:42.443Z,99.21
2022-11-18T12:38:45.659Z,99.86
2022-11-18T12:40:52.655Z,98.79
2022-11-18T12:43:13.800Z,99.17
2022-11-18T12:45:53.552Z,98.70
2022-11-18T12:47:59.583Z,99.04
2022-11-18T12:50:13.690Z,97.62
2022-11-18T12:52:49.674Z,97.20
2022-11-18T12:54:52.926Z,98.18
2022-11-18T12:56:57.171Z,97.09
2022-11-18T12:59:02.474Z,98.17
2022-11-18T13:01:07.828Z,97.43
2022-11-18T13:03:10.936Z,96.38
2022-11-18T13:05:21.115Z,95.09
2022-11-18T13:07:42.321Z,94.78
2022-11-18T13:09:47.139Z,94.77
2022-11-18T13:11:53.165Z,95.26
2022-11-18T13:14:10.493Z,95.52
2022-11-18T13:16:38.437Z,95.07
2022-11-18T13:18:51.626Z,95.68
2022-11-18T13:21:00.249Z,93.74
2022-11-18T13:23:22.210Z,93.98
2022-11-18T13:25:28.242Z,93.40
2022-11-18T13:27:51.125Z,94.91
2022-11-18T13:29:59.682Z,93.29
2022-11-18T13:32:18.155Z,95.09
2022-11-18T13:34:23.081Z,95.36
2022-11-18T13:36:27.139Z,95.20
2022-11-18T13:38:30.203Z,95.16
2022-11-18T13:41:04.253Z,94.85
2022-11-18T13:43:10.458Z,93.44
2022-11-18T13:45:14.484Z,95.42
2022-11-18T13:47:24.388Z,95.13
2022-11-18T13:49:34.310Z,94.48
2022-11-18T13:51:38.848Z,95.99
2022-11-18T13:53:43.450Z,95.11
2022-11-18T13:55:51.437Z,96.15
2022-11-18T13:58:00.797Z,95.80
2022-11-18T14:00:08.170Z,96.56
2022-11-18T14:02:14.420Z,95.57
2022-11-18T14:04:20.726Z,95.93
2022-11-18T14:06:28.290Z,96.96
2022-11-18T14:08:32.838Z,95.54
2022-11-18T14:10:42.589Z,96.72
2022-11-18T14:12:59.067Z,95.46
2022-11-18T14:15:16.172Z,96.35
2022-11-18T14:17:20.908Z,96.40
2022-11-18T14:19:30.381Z,96.50
2022-11-18T14:21:35.323Z,96.59
2022-11-18T14:23:38.698Z,97.24
2022-11-18T14:25:44.963Z,97.80
2022-11-18T14:27:52.310Z,97.06
2022-11-18T14:29:55.758Z,98.42
2022-11-18T14:32:14.952Z,97.21
2022-11-18T14:34:21.117Z,97.42
2022-11-18T14:36:24.183Z,96.91
2022-11-18T14:38:43.631Z,97.42
2022-11-18T14:40:56.942Z,98.46
2022-11-18T14:43:02.129Z,97.52
2022-11-18T14:45:05.805Z,97.63
2022-11-18T14:47:16.859Z,98.75
2022-11-18T14:49:23.540Z,97.65
2022-11-18T14:51:26.872Z,96.38
2022-11-18T14:53:34.775Z,97.78
2022-11-18T14:55:38.388Z,97.97
2022-11-18T14:57:41.623Z,97.93
2022-11-18T14:59:46.125Z,98.20
2022-11-18T15:01:49.808Z,98.28
2022-11-18T15:03:52.993Z,97.47
2022-11-18T15:05:56.185Z,97.42
2022-11-18T15:07:59.217Z,97.09
2022-11-18T15:10:02.280Z,96.63
2022-11-18T15:12:10.179Z,98.10
2022-11-18T15:14:18.804Z,96.38
2022-11-18T15:16:25.863Z,96.99
2022-11-18T15:18:28.951Z,97.30
2022-11-18T15:20:32.155Z,97.01
2022-11-18T15:22:35.544Z,97.58
2022-11-18T15:24:38.811Z,96.01
2022-11-18T15:26:44.197Z,97.11
2022-11-18T15:28:47.614Z,96.40
2022-11-18T15:30:50.841Z,96.57
2022-11-18T15:32:55.465Z,95.97
2022-11-18T15:34:58.572Z,94.94
2022-11-18T15:37:01.727Z,94.71
2022-11-18T15:39:04.940Z,95.38
2022-11-18T15:41:08.077Z,95.33
2022-11-18T15:43:11.137Z,95.15
2022-11-18T15:45:14.273Z,95.11
2022-11-18T15:47:17.390Z,96.50
2022-11-18T15:49:22.115Z,96.40
2022-11-18T15:51:26.035Z,96.04
2022-11-18T15:53:29.370Z,95.76
2022-11-18T15:55:32.384Z,96.43
2022-11-18T15:57:35.479Z,95.82
2022-11-18T15:59:38.584Z,94.07
2022-11-18T16:01:43.598Z,94.54
2022-11-18T16:03:46.659Z,96.48
2022-11-18T16:05:53.396Z,96.18
2022-11-18T16:07:56.544Z,95.57
2022-11-18T16:10:17.138Z,96.58
2022-11-18T16:12:37.742Z,96.90
2022-11-18T16:14:40.722Z,97.01
2022-11-18T16:16:44.662Z,96.21
2022-11-18T16:18:47.748Z,96.00
2022-11-18T16:20:58.618Z,96.71
2022-11-18T16:23:01.601Z,95.50
2022-11-18T16:25:05.180Z,96.27
2022-11-18T16:27:08.213Z,97.04
2022-11-18T16:29:15.607Z,97.00
2022-11-18T16:31:36.143Z,96.73
2022-11-18T16:33:39.434Z,97.36
2022-11-18T16:35:47.815Z,97.39
2022-11-18T16:37:52.230Z,98.03
2022-11-18T16:39:55.480Z,97.29
2022-11-18T16:42:07.480Z,98.20
2022-11-18T16:44:13.794Z,97.78
2022-11-18T16:46:16.765Z,98.52
2022-11-18T16:48:19.920Z,98.30
2022-11-18T16:50:23.017Z,96.81
2022-11-18T16:52:26.236Z,97.54
2022-11-18T16:54:32.084Z,97.96
2022-11-18T16:56:36.549Z,97.19
2022-11-18T16:58:39.542Z,97.54
2022-11-18T17:01:16.591Z,98.28
2022-11-18T17:03:06.106Z,97.68
2022-11-18T17:05:09.730Z,97.30
2022-11-18T17:07:13.113Z,97.98
2022-11-18T17:09:18.077Z,97.39
2022-11-18T17:11:23.034Z,98.03
2022-11-18T17:13:26.031Z,98.28
2022-11-18T17:15:29.104Z,98.45
2022-11-18T17:17:32.156Z,98.15
2022-11-18T17:19:35.255Z,97.82
2022-11-18T17:21:38.274Z,97.80
2022-11-18T17:23:42.169Z,98.80
2022-11-18T17:25:45.195Z,97.98
2022-11-18T17:27:49.633Z,97.79
2022-11-18T17:29:52.682Z,98.27
2022-11-18T17:31:55.763Z,98.72
2022-11-18T17:33:58.953Z,98.36
2022-11-18T17:36:02.349Z,99.44
2022-11-18T17:38:05.344Z,99.57
2022-11-18T17:40:10.056Z,98.54
2022-11-18T17:42:17.612Z,98.08
2022-11-18T17:44:22.152Z,98.19
2022-11-18T17:46:25.573Z,97.54
2022-11-18T17:48:29.970Z,97.57
2022-11-18T17:50:33.048Z,97.07
2022-11-18T17:52:36.161Z,97.27
2022-11-18T17:54:39.288Z,98.46
2022-11-18T17:56:42.487Z,98.08
2022-11-18T17:58:45.785Z,97.44
2022-11-18T18:00:51.068Z,98.20
2022-11-18T18:02:54.485Z,98.26
2022-11-18T18:04:58.182Z,98.16
2022-11-18T18:07:01.803Z,97.53
2022-11-18T18:09:05.174Z,97.17
2022-11-18T18:11:10.995Z,98.65
2022-11-18T18:13:31.982Z,98.03
2022-11-18T18:15:35.665Z,99.26
2022-11-18T18:17:40.351Z,98.63
2022-11-18T18:19:43.409Z,98.83
2022-11-18T18:21:46.780Z,98.63
2022-11-18T18:23:49.897Z,99.10
2022-11-18T18:25:53.052Z,100.00
2022-11-18T18:27:56.112Z,99.02
2022-11-18T18:29:59.183Z,99.35
2022-11-18T18:32:02.557Z,98.74
2022-11-18T18:34:07.551Z,99.68
2022-11-18T18:36:12.907Z,99.76
2022-11-18T18:38:16.111Z,99.83
2022-11-18T18:40:19.328Z,99.76
2022-11-18T18:42:25.927Z,98.01
2022-11-18T18:44:49.414Z,98.27
2022-11-18T18:46:51.526Z,97.71
2022-11-18T18:48:54.664Z,98.40
2022-11-18T18:51:05.331Z,97.50
2022-11-18T18:53:08.442Z,98.71
2022-11-18T18:55:11.549Z,97.94
2022-11-18T18:57:14.535Z,97.59
2022-11-18T18:59:17.578Z,97.56
2022-11-18T19:01:21.472Z,98.12
2022-11-18T19:03:24.625Z,98.34
2022-11-18T19:05:53.590Z,98.16
2022-11-18T19:07:53.445Z,96.43
2022-11-18T19:09:56.617Z,98.07
2022-11-18T19:12:17.240Z,96.64
2022-11-18T19:14:21.353Z,97.01
2022-11-18T19:16:24.534Z,97.47
2022-11-18T19:18:27.793Z,96.30
2022-11-18T19:20:36.861Z,97.09
2022-11-18T19:22:39.945Z,97.70
2022-11-18T19:24:52.157Z,96.87
2022-11-18T19:26:55.513Z,98.24
2022-11-18T19:28:59.272Z,97.06
2022-11-18T19:31:02.425Z,96.74
2022-11-18T19:33:05.887Z,97.71
2022-11-18T19:35:09.918Z,96.19
2022-11-18T19:37:13.418Z,97.46
2022-11-18T19:39:16.683Z,97.47
2022-11-18T19:41:21.256Z,98.00
2022-11-18T19:43:27.143Z,97.65
2022-11-18T19:45:30.173Z,96.98
2022-11-18T19:47:33.542Z,97.52
2022-11-18T19:49:36.703Z,97.24
2022-11-18T19:51:39.945Z,98.12
2022-11-18T19:53:43.785Z,97.46
2022-11-18T19:55:54.374Z,96.18
2022-11-18T19:57:58.873Z,96.48
2022-11-18T20:00:02.491Z,96.89
2022-11-18T20:02:12.671Z,96.31
2022-11-18T20:04:15.775Z,96.27
2022-11-18T20:06:19.800Z,95.85
2022-11-18T20:08:24.289Z,96.74
2022-11-18T20:10:27.435Z,97.60
2022-11-18T20:12:30.526Z,96.85
2022-11-18T20:14:35.209Z,95.94
2022-11-18T20:16:38.732Z,96.46
2022-11-18T20:18:42.386Z,96.30
2022-11-18T20:20:45.546Z,96.20
2022-11-18T20:22:48.648Z,95.70
2022-11-18T20:24:52.102Z,95.81
2022-11-18T20:26:55.290Z,96.14
2022-11-18T20:28:58.404Z,95.80
2022-11-18T20:31:03.130Z,95.73
2022-11-18T20:33:06.358Z,96.63
2022-11-18T20:35:10.505Z,96.52
2022-11-18T20:37:14.914Z,96.75
2022-11-18T20:39:18.650Z,96.06
2022-11-18T20:41:22.521Z,96.61
2022-11-18T20:43:24.662Z,96.46
2022-11-18T20:45:27.714Z,96.74
2022-11-18T20:47:32.127Z,97.20
2022-11-18T20:49:35.193Z,96.46
2022-11-18T20:51:38.212Z,96.38
2022-11-18T20:53:42.762Z,96.16
2022-11-18T20:55:49.442Z,96.09
2022-11-18T20:57:52.514Z,96.90
2022-11-18T20:59:55.704Z,97.29
2022-11-18T21:01:58.846Z,96.87
2022-11-18T21:04:04.504Z,98.07
2022-11-18T21:06:13.630Z,97.68
2022-11-18T21:08:17.565Z,97.89
2022-11-18T21:10:20.769Z,98.29
2022-11-18T21:12:23.882Z,98.41
2022-11-18T21:14:26.078Z,98.97
2022-11-18T21:16:29.335Z,97.58
2022-11-18T21:18:32.313Z,98.17
2022-11-18T21:20:54.404Z,97.55
2022-11-18T21:22:58.183Z,98.14
2022-11-18T21:25:01.274Z,98.04
2022-11-18T21:27:05.097Z,98.14
2022-11-18T21:29:09.762Z,98.01
2022-11-18T21:31:12.855Z,97.92
2022-11-18T21:33:16.035Z,98.54
2022-11-18T21:35:19.237Z,97.05
2022-11-18T21:37:23.710Z,97.46
2022-11-18T21:39:27.564Z,97.83
2022-11-18T21:41:31.143Z,98.62
2022-11-18T21:44:03.912Z,96.92
2022-11-18T21:46:01.570Z,97.26
2022-11-18T21:48:05.182Z,96.91
2022-11-18T21:50:09.230Z,97.90
2022-11-18T21:52:12.334Z,97.53
2022-11-18T21:54:18.237Z,97.14
2022-11-18T21:56:23.171Z,96.06
2022-11-18T21:58:26.330Z,97.13
2022-11-18T22:00:29.705Z,96.90
2022-11-18T22:02:32.870Z,96.56
2022-11-18T22:04:54.426Z,97.44
2022-11-18T22:06:57.626Z,96.51
2022-11-18T22:09:01.120Z,96.67
2022-11-18T22:11:06.244Z,96.41
2022-11-18T22:13:09.388Z,94.96
2022-11-18T22:15:12.521Z,95.44
2022-11-18T22:17:15.752Z,95.54
2022-11-18T22:19:19.135Z,96.03
2022-11-18T22:21:22.821Z,95.84
2022-11-18T22:23:27.459Z,96.94
2022-11-18T22:25:30.588Z,96.95
2022-11-18T22:27:35.108Z,96.38
2022-11-18T22:29:38.187Z,96.08
2022-11-18T22:31:41.178Z,96.81
2022-11-18T22:33:44.267Z,96.17
2022-11-18T22:35:47.533Z,96.19
2022-11-18T22:37:50.647Z,95.41
2022-11-18T22:39:53.767Z,95.08
2022-11-18T22:42:14.508Z,95.49
2022-11-18T22:44:18.880Z,95.21
2022-11-18T22:46:22.000Z,94.79
2022-11-18T22:48:25.319Z,96.03
2022-11-18T22:50:28.704Z,95.37
2022-11-18T22:52:32.339Z,95.32
2022-11-18T22:54:39.805Z,94.56
2022-11-18T22:56:43.433Z,94.77
2022-11-18T22:58:46.483Z,95.16
2022-11-18T23:00:50.899Z,94.23
2022-11-18T23:02:53.996Z,94.93
2022-11-18T23:04:57.205Z,94.22
2022-11-18T23:07:00.277Z,94.86
2022-11-18T23:09:03.500Z,94.28
2022-11-18T23:11:08.113Z,94.22
2022-11-18T23:13:31.493Z,94.17
2022-11-18T23:15:34.594Z,94.29
2022-11-18T23:17:38.938Z,94.94
2022-11-18T23:19:43.857Z,94.24
2022-11-18T23:21:47.421Z,94.82
2022-11-18T23:23:50.451Z,95.26
2022-11-18T23:25:53.472Z,93.37
2022-11-18T23:27:56.681Z,93.68
2022-11-18T23:29:59.789Z,93.26
2022-11-18T23:32:02.798Z,93.72
2022-11-18T23:34:07.252Z,94.21
2022-11-18T23:36:12.341Z,94.31
2022-11-18T23:38:15.370Z,94.17
2022-11-18T23:40:18.789Z,94.62
2022-11-18T23:42:21.876Z,94.67
2022-11-18T23:44:44.919Z,95.00
2022-11-18T23:46:47.975Z,95.27
2022-11-18T23:48:51.057Z,94.93
2022-11-18T23:50:56.194Z,94.99
2022-11-18T23:52:59.211Z,95.54
2022-11-18T23:55:02.206Z,96.00
2022-11-18T23:57:05.563Z,95.87
2022-11-18T23:59:08.942Z,95.73
